Santo Domingo, Dominican Republic
Current Conditions -  °F | °C
As of 12:00 PM on Saturday 25 Oct 2014 (Local Time) from MDSD Reporting Station
Scattered Clouds Scattered Clouds  
Wind Chill: 30°   Ceiling: Unl
Heat Index: 35°   Visibility: 6mi
Dew Point: 24°   Wind: 12mph
Humidity: 70%   Direction: 170°S
Pressure: 29.88"   Gusts: NA
Location:  18.48°N, 69.91°W
Report Text: MDSD 251600Z 17010KT 9999 SCT022 SCT300 30/24 Q1012
Loading
Personal Weather Stations






























Interactive Weather Map
Tropical Storm Tracking
New forecast layout! Learn more

10-Day Weather Forecast

Advertisements
Track Severe Weather on mobile